sensor_id;sensor_type;location;lat;lon;timestamp;temperature;humidity
70076;DHT22;63241;51.056;3.698;2023-04-06T00:01:49;10.10;53.60
70076;DHT22;63241;51.056;3.698;2023-04-06T00:04:17;10.20;53.70
70076;DHT22;63241;51.056;3.698;2023-04-06T00:06:44;10.10;54.00
70076;DHT22;63241;51.056;3.698;2023-04-06T00:09:12;10.10;54.10
70076;DHT22;63241;51.056;3.698;2023-04-06T00:11:40;10.10;54.60
70076;DHT22;63241;51.056;3.698;2023-04-06T00:14:08;10.00;55.50
70076;DHT22;63241;51.056;3.698;2023-04-06T00:16:35;10.00;55.10
70076;DHT22;63241;51.056;3.698;2023-04-06T00:19:03;10.00;55.30
70076;DHT22;63241;51.056;3.698;2023-04-06T00:21:31;10.00;55.70
70076;DHT22;63241;51.056;3.698;2023-04-06T00:23:59;9.90;56.40
70076;DHT22;63241;51.056;3.698;2023-04-06T00:26:27;9.90;56.00
70076;DHT22;63241;51.056;3.698;2023-04-06T00:28:54;9.90;55.90
70076;DHT22;63241;51.056;3.698;2023-04-06T00:31:22;9.90;56.50
70076;DHT22;63241;51.056;3.698;2023-04-06T00:33:50;9.90;56.90
70076;DHT22;63241;51.056;3.698;2023-04-06T00:36:18;9.90;56.60
70076;DHT22;63241;51.056;3.698;2023-04-06T00:38:46;9.90;56.90
70076;DHT22;63241;51.056;3.698;2023-04-06T00:41:14;9.90;57.30
70076;DHT22;63241;51.056;3.698;2023-04-06T00:43:42;9.90;57.10
70076;DHT22;63241;51.056;3.698;2023-04-06T00:46:09;9.90;57.40
70076;DHT22;63241;51.056;3.698;2023-04-06T00:48:37;9.90;57.50
70076;DHT22;63241;51.056;3.698;2023-04-06T00:51:06;10.00;57.60
70076;DHT22;63241;51.056;3.698;2023-04-06T00:53:33;10.00;57.80
70076;DHT22;63241;51.056;3.698;2023-04-06T00:56:01;10.00;57.90
70076;DHT22;63241;51.056;3.698;2023-04-06T00:58:29;10.00;58.10
70076;DHT22;63241;51.056;3.698;2023-04-06T01:00:58;10.00;58.10
70076;DHT22;63241;51.056;3.698;2023-04-06T01:03:26;10.00;58.10
70076;DHT22;63241;51.056;3.698;2023-04-06T01:05:53;10.00;58.50
70076;DHT22;63241;51.056;3.698;2023-04-06T01:08:23;10.00;58.80
70076;DHT22;63241;51.056;3.698;2023-04-06T01:10:51;9.90;59.30
70076;DHT22;63241;51.056;3.698;2023-04-06T01:13:19;9.90;59.90
70076;DHT22;63241;51.056;3.698;2023-04-06T01:15:47;9.80;60.50
70076;DHT22;63241;51.056;3.698;2023-04-06T01:18:14;9.80;60.80
70076;DHT22;63241;51.056;3.698;2023-04-06T01:20:42;9.80;61.20
70076;DHT22;63241;51.056;3.698;2023-04-06T01:23:10;9.80;62.00
70076;DHT22;63241;51.056;3.698;2023-04-06T01:25:38;9.80;61.80
70076;DHT22;63241;51.056;3.698;2023-04-06T01:28:06;9.80;61.90
70076;DHT22;63241;51.056;3.698;2023-04-06T01:30:33;9.80;62.50
70076;DHT22;63241;51.056;3.698;2023-04-06T01:33:01;9.80;63.00
70076;DHT22;63241;51.056;3.698;2023-04-06T01:35:30;9.80;62.70
70076;DHT22;63241;51.056;3.698;2023-04-06T01:37:58;9.80;62.70
70076;DHT22;63241;51.056;3.698;2023-04-06T01:40:26;9.80;63.70
70076;DHT22;63241;51.056;3.698;2023-04-06T01:42:54;9.80;64.00
70076;DHT22;63241;51.056;3.698;2023-04-06T01:45:21;9.80;65.00
70076;DHT22;63241;51.056;3.698;2023-04-06T01:47:49;9.80;65.00
70076;DHT22;63241;51.056;3.698;2023-04-06T01:50:17;9.70;66.30
70076;DHT22;63241;51.056;3.698;2023-04-06T01:52:45;9.60;67.90
70076;DHT22;63241;51.056;3.698;2023-04-06T01:55:13;9.70;68.10
70076;DHT22;63241;51.056;3.698;2023-04-06T01:57:41;9.60;69.20
70076;DHT22;63241;51.056;3.698;2023-04-06T02:00:09;9.60;70.90
70076;DHT22;63241;51.056;3.698;2023-04-06T02:02:37;9.60;70.40
70076;DHT22;63241;51.056;3.698;2023-04-06T02:05:05;9.60;70.70
70076;DHT22;63241;51.056;3.698;2023-04-06T02:07:33;9.60;71.40
70076;DHT22;63241;51.056;3.698;2023-04-06T02:10:00;9.60;72.50
70076;DHT22;63241;51.056;3.698;2023-04-06T02:12:28;9.60;72.00
70076;DHT22;63241;51.056;3.698;2023-04-06T02:14:56;9.60;73.20
70076;DHT22;63241;51.056;3.698;2023-04-06T02:17:24;9.60;73.00
70076;DHT22;63241;51.056;3.698;2023-04-06T02:19:52;9.70;73.60
70076;DHT22;63241;51.056;3.698;2023-04-06T02:22:20;9.70;73.30
70076;DHT22;63241;51.056;3.698;2023-04-06T02:24:47;9.70;73.50
70076;DHT22;63241;51.056;3.698;2023-04-06T02:27:15;9.70;73.70
70076;DHT22;63241;51.056;3.698;2023-04-06T02:29:42;9.70;74.20
70076;DHT22;63241;51.056;3.698;2023-04-06T02:32:10;9.70;75.10
70076;DHT22;63241;51.056;3.698;2023-04-06T02:34:38;9.70;75.30
70076;DHT22;63241;51.056;3.698;2023-04-06T02:37:06;9.80;76.00
70076;DHT22;63241;51.056;3.698;2023-04-06T02:39:33;9.80;76.10
70076;DHT22;63241;51.056;3.698;2023-04-06T02:42:01;9.70;77.70
70076;DHT22;63241;51.056;3.698;2023-04-06T02:44:29;9.80;78.00
70076;DHT22;63241;51.056;3.698;2023-04-06T02:46:57;9.70;78.10
70076;DHT22;63241;51.056;3.698;2023-04-06T02:49:24;9.70;79.60
70076;DHT22;63241;51.056;3.698;2023-04-06T02:51:52;9.70;81.60
70076;DHT22;63241;51.056;3.698;2023-04-06T02:54:20;9.60;82.90
70076;DHT22;63241;51.056;3.698;2023-04-06T02:56:48;9.60;84.00
70076;DHT22;63241;51.056;3.698;2023-04-06T02:59:16;9.60;86.20
70076;DHT22;63241;51.056;3.698;2023-04-06T03:01:43;9.50;86.70
70076;DHT22;63241;51.056;3.698;2023-04-06T03:04:11;9.50;88.40
70076;DHT22;63241;51.056;3.698;2023-04-06T03:06:39;9.50;90.10
70076;DHT22;63241;51.056;3.698;2023-04-06T03:09:07;9.50;90.60
70076;DHT22;63241;51.056;3.698;2023-04-06T03:11:35;9.50;91.00
70076;DHT22;63241;51.056;3.698;2023-04-06T03:14:02;9.50;91.50
70076;DHT22;63241;51.056;3.698;2023-04-06T03:16:31;9.60;91.30
70076;DHT22;63241;51.056;3.698;2023-04-06T03:18:58;9.50;92.60
70076;DHT22;63241;51.056;3.698;2023-04-06T03:21:26;9.40;92.60
70076;DHT22;63241;51.056;3.698;2023-04-06T03:23:54;9.40;93.40
70076;DHT22;63241;51.056;3.698;2023-04-06T03:26:22;9.40;93.80
70076;DHT22;63241;51.056;3.698;2023-04-06T03:28:50;9.40;94.40
70076;DHT22;63241;51.056;3.698;2023-04-06T03:31:17;9.30;94.50
70076;DHT22;63241;51.056;3.698;2023-04-06T03:33:45;9.40;94.60
70076;DHT22;63241;51.056;3.698;2023-04-06T03:36:13;9.40;95.40
70076;DHT22;63241;51.056;3.698;2023-04-06T03:38:41;9.40;95.30
70076;DHT22;63241;51.056;3.698;2023-04-06T03:41:09;9.40;95.80
70076;DHT22;63241;51.056;3.698;2023-04-06T03:43:37;9.40;95.70
70076;DHT22;63241;51.056;3.698;2023-04-06T03:46:04;9.40;96.00
70076;DHT22;63241;51.056;3.698;2023-04-06T03:48:32;9.40;96.50
70076;DHT22;63241;51.056;3.698;2023-04-06T03:51:00;9.50;97.10
70076;DHT22;63241;51.056;3.698;2023-04-06T03:53:28;9.40;97.40
70076;DHT22;63241;51.056;3.698;2023-04-06T03:55:55;9.30;98.50
70076;DHT22;63241;51.056;3.698;2023-04-06T03:58:23;9.30;98.90
70076;DHT22;63241;51.056;3.698;2023-04-06T04:00:51;9.30;99.00
70076;DHT22;63241;51.056;3.698;2023-04-06T04:03:18;9.40;99.80
70076;DHT22;63241;51.056;3.698;2023-04-06T04:05:48;9.40;99.60
70076;DHT22;63241;51.056;3.698;2023-04-06T04:08:16;9.40;99.70
70076;DHT22;63241;51.056;3.698;2023-04-06T04:10:43;9.30;99.90
70076;DHT22;63241;51.056;3.698;2023-04-06T04:13:11;9.40;99.90
70076;DHT22;63241;51.056;3.698;2023-04-06T04:15:39;9.40;99.90
70076;DHT22;63241;51.056;3.698;2023-04-06T04:18:07;9.30;99.90
70076;DHT22;63241;51.056;3.698;2023-04-06T04:20:34;9.40;99.90
70076;DHT22;63241;51.056;3.698;2023-04-06T04:23:02;9.50;99.90
70076;DHT22;63241;51.056;3.698;2023-04-06T04:25:30;9.50;99.90
70076;DHT22;63241;51.056;3.698;2023-04-06T04:27:58;9.40;99.90
70076;DHT22;63241;51.056;3.698;2023-04-06T04:30:25;9.40;99.90
70076;DHT22;63241;51.056;3.698;2023-04-06T04:32:53;9.40;99.90
70076;DHT22;63241;51.056;3.698;2023-04-06T04:35:21;9.40;99.90
70076;DHT22;63241;51.056;3.698;2023-04-06T04:37:49;9.40;99.90
70076;DHT22;63241;51.056;3.698;2023-04-06T04:40:16;9.30;99.90
70076;DHT22;63241;51.056;3.698;2023-04-06T04:42:44;9.30;99.90
70076;DHT22;63241;51.056;3.698;2023-04-06T04:45:12;9.40;99.90
70076;DHT22;63241;51.056;3.698;2023-04-06T04:47:40;9.30;99.90
70076;DHT22;63241;51.056;3.698;2023-04-06T04:50:08;9.30;99.90
70076;DHT22;63241;51.056;3.698;2023-04-06T04:52:38;9.30;99.90
70076;DHT22;63241;51.056;3.698;2023-04-06T04:55:06;9.30;99.90
70076;DHT22;63241;51.056;3.698;2023-04-06T04:57:34;9.30;99.90
70076;DHT22;63241;51.056;3.698;2023-04-06T05:00:02;9.30;99.90
70076;DHT22;63241;51.056;3.698;2023-04-06T05:02:29;9.30;99.90
70076;DHT22;63241;51.056;3.698;2023-04-06T05:04:57;9.40;99.90
70076;DHT22;63241;51.056;3.698;2023-04-06T05:07:25;9.40;99.90
70076;DHT22;63241;51.056;3.698;2023-04-06T05:09:53;9.40;99.90
70076;DHT22;63241;51.056;3.698;2023-04-06T05:12:21;9.40;99.90
70076;DHT22;63241;51.056;3.698;2023-04-06T05:14:48;9.40;99.90
70076;DHT22;63241;51.056;3.698;2023-04-06T05:17:16;9.40;99.90
70076;DHT22;63241;51.056;3.698;2023-04-06T05:19:44;9.40;99.90
70076;DHT22;63241;51.056;3.698;2023-04-06T05:22:12;9.30;99.90
70076;DHT22;63241;51.056;3.698;2023-04-06T05:24:41;9.30;99.90
70076;DHT22;63241;51.056;3.698;2023-04-06T05:27:09;9.40;99.90
70076;DHT22;63241;51.056;3.698;2023-04-06T05:29:37;9.30;99.90
70076;DHT22;63241;51.056;3.698;2023-04-06T05:32:07;9.30;99.90
70076;DHT22;63241;51.056;3.698;2023-04-06T05:34:34;9.30;99.90
70076;DHT22;63241;51.056;3.698;2023-04-06T05:37:02;9.30;99.90
70076;DHT22;63241;51.056;3.698;2023-04-06T05:39:30;9.30;99.90
70076;DHT22;63241;51.056;3.698;2023-04-06T05:41:57;9.20;99.90
70076;DHT22;63241;51.056;3.698;2023-04-06T05:44:25;9.20;99.90
70076;DHT22;63241;51.056;3.698;2023-04-06T05:46:53;9.20;99.90
70076;DHT22;63241;51.056;3.698;2023-04-06T05:49:21;9.20;99.90
70076;DHT22;63241;51.056;3.698;2023-04-06T05:51:48;9.20;99.90
70076;DHT22;63241;51.056;3.698;2023-04-06T05:54:16;9.20;99.90
70076;DHT22;63241;51.056;3.698;2023-04-06T05:56:44;9.20;99.90
70076;DHT22;63241;51.056;3.698;2023-04-06T05:59:12;9.30;99.90
70076;DHT22;63241;51.056;3.698;2023-04-06T06:01:39;9.00;99.90
70076;DHT22;63241;51.056;3.698;2023-04-06T06:04:07;9.00;99.90
70076;DHT22;63241;51.056;3.698;2023-04-06T06:06:35;8.80;99.90
70076;DHT22;63241;51.056;3.698;2023-04-06T06:09:03;8.60;99.90
70076;DHT22;63241;51.056;3.698;2023-04-06T06:11:31;8.40;99.90
70076;DHT22;63241;51.056;3.698;2023-04-06T06:13:59;8.40;99.90
70076;DHT22;63241;51.056;3.698;2023-04-06T06:16:27;8.40;99.90
70076;DHT22;63241;51.056;3.698;2023-04-06T06:18:55;8.30;99.90
70076;DHT22;63241;51.056;3.698;2023-04-06T06:21:22;8.20;99.90
70076;DHT22;63241;51.056;3.698;2023-04-06T06:23:50;8.20;99.90
70076;DHT22;63241;51.056;3.698;2023-04-06T06:26:19;8.10;99.90
70076;DHT22;63241;51.056;3.698;2023-04-06T06:28:48;8.20;99.90
70076;DHT22;63241;51.056;3.698;2023-04-06T06:31:15;8.20;99.90
70076;DHT22;63241;51.056;3.698;2023-04-06T06:33:43;8.10;99.90
70076;DHT22;63241;51.056;3.698;2023-04-06T06:36:11;8.10;99.90
70076;DHT22;63241;51.056;3.698;2023-04-06T06:38:39;8.10;99.90
70076;DHT22;63241;51.056;3.698;2023-04-06T06:41:06;8.20;99.90
70076;DHT22;63241;51.056;3.698;2023-04-06T06:43:34;8.10;99.90
70076;DHT22;63241;51.056;3.698;2023-04-06T06:46:02;8.20;99.90
70076;DHT22;63241;51.056;3.698;2023-04-06T06:48:30;8.30;99.90
70076;DHT22;63241;51.056;3.698;2023-04-06T06:50:58;8.30;99.90
70076;DHT22;63241;51.056;3.698;2023-04-06T06:53:26;8.30;99.90
70076;DHT22;63241;51.056;3.698;2023-04-06T06:55:54;8.30;99.90
70076;DHT22;63241;51.056;3.698;2023-04-06T06:58:21;8.30;99.90
70076;DHT22;63241;51.056;3.698;2023-04-06T07:00:49;8.40;99.90
70076;DHT22;63241;51.056;3.698;2023-04-06T07:03:17;8.50;99.90
70076;DHT22;63241;51.056;3.698;2023-04-06T07:05:48;8.50;99.90
70076;DHT22;63241;51.056;3.698;2023-04-06T07:08:23;8.60;99.90
70076;DHT22;63241;51.056;3.698;2023-04-06T07:10:49;8.60;99.90
70076;DHT22;63241;51.056;3.698;2023-04-06T07:13:19;8.80;99.90
70076;DHT22;63241;51.056;3.698;2023-04-06T07:15:50;8.90;99.90
70076;DHT22;63241;51.056;3.698;2023-04-06T07:18:19;9.00;99.90
70076;DHT22;63241;51.056;3.698;2023-04-06T07:20:47;9.10;99.90
70076;DHT22;63241;51.056;3.698;2023-04-06T07:23:14;9.20;99.90
70076;DHT22;63241;51.056;3.698;2023-04-06T07:25:42;9.20;99.90
70076;DHT22;63241;51.056;3.698;2023-04-06T07:28:10;9.30;99.90
70076;DHT22;63241;51.056;3.698;2023-04-06T07:30:38;9.30;99.90
70076;DHT22;63241;51.056;3.698;2023-04-06T07:33:06;9.30;99.90
70076;DHT22;63241;51.056;3.698;2023-04-06T07:35:33;9.20;99.90
70076;DHT22;63241;51.056;3.698;2023-04-06T07:38:03;9.10;99.90
70076;DHT22;63241;51.056;3.698;2023-04-06T07:40:31;8.90;99.90
70076;DHT22;63241;51.056;3.698;2023-04-06T07:43:01;8.90;99.90
70076;DHT22;63241;51.056;3.698;2023-04-06T07:45:29;8.80;99.90
70076;DHT22;63241;51.056;3.698;2023-04-06T07:47:56;8.80;99.90
70076;DHT22;63241;51.056;3.698;2023-04-06T07:50:24;8.80;99.90
70076;DHT22;63241;51.056;3.698;2023-04-06T07:52:52;8.80;99.90
70076;DHT22;63241;51.056;3.698;2023-04-06T07:55:19;8.70;99.90
70076;DHT22;63241;51.056;3.698;2023-04-06T07:57:47;8.70;99.90
70076;DHT22;63241;51.056;3.698;2023-04-06T08:00:15;8.70;99.90
70076;DHT22;63241;51.056;3.698;2023-04-06T08:02:43;8.80;99.90
70076;DHT22;63241;51.056;3.698;2023-04-06T08:05:11;8.80;99.90
70076;DHT22;63241;51.056;3.698;2023-04-06T08:07:39;8.80;99.90
70076;DHT22;63241;51.056;3.698;2023-04-06T08:10:08;8.90;99.90
70076;DHT22;63241;51.056;3.698;2023-04-06T08:12:36;8.70;99.90
70076;DHT22;63241;51.056;3.698;2023-04-06T08:15:04;8.70;99.90
70076;DHT22;63241;51.056;3.698;2023-04-06T08:17:32;8.70;99.90
70076;DHT22;63241;51.056;3.698;2023-04-06T08:20:00;8.90;99.90
70076;DHT22;63241;51.056;3.698;2023-04-06T08:22:30;9.10;99.90
70076;DHT22;63241;51.056;3.698;2023-04-06T08:24:58;8.90;99.90
70076;DHT22;63241;51.056;3.698;2023-04-06T08:27:25;9.00;99.90
70076;DHT22;63241;51.056;3.698;2023-04-06T08:29:53;9.00;99.90
70076;DHT22;63241;51.056;3.698;2023-04-06T08:32:21;9.10;99.90
70076;DHT22;63241;51.056;3.698;2023-04-06T08:34:48;9.20;99.90
70076;DHT22;63241;51.056;3.698;2023-04-06T08:37:16;9.20;99.90
70076;DHT22;63241;51.056;3.698;2023-04-06T08:39:44;9.10;99.90
70076;DHT22;63241;51.056;3.698;2023-04-06T08:42:20;8.90;99.90
70076;DHT22;63241;51.056;3.698;2023-04-06T08:44:46;9.00;99.90
70076;DHT22;63241;51.056;3.698;2023-04-06T08:47:14;8.90;99.90
70076;DHT22;63241;51.056;3.698;2023-04-06T08:49:44;8.80;99.90
70076;DHT22;63241;51.056;3.698;2023-04-06T08:52:12;8.90;99.90
70076;DHT22;63241;51.056;3.698;2023-04-06T08:54:40;8.90;99.90
70076;DHT22;63241;51.056;3.698;2023-04-06T08:57:10;9.00;99.90
70076;DHT22;63241;51.056;3.698;2023-04-06T08:59:38;9.00;99.90
70076;DHT22;63241;51.056;3.698;2023-04-06T09:02:06;9.00;99.90
70076;DHT22;63241;51.056;3.698;2023-04-06T09:04:36;9.00;99.90
70076;DHT22;63241;51.056;3.698;2023-04-06T09:07:04;9.10;99.90
70076;DHT22;63241;51.056;3.698;2023-04-06T09:09:32;9.10;99.90
70076;DHT22;63241;51.056;3.698;2023-04-06T09:11:59;9.20;99.90
70076;DHT22;63241;51.056;3.698;2023-04-06T09:14:38;9.30;99.90
70076;DHT22;63241;51.056;3.698;2023-04-06T09:17:07;9.40;99.90
70076;DHT22;63241;51.056;3.698;2023-04-06T09:19:45;9.40;99.90
70076;DHT22;63241;51.056;3.698;2023-04-06T09:22:13;9.30;99.90
70076;DHT22;63241;51.056;3.698;2023-04-06T09:24:46;9.40;99.90
70076;DHT22;63241;51.056;3.698;2023-04-06T09:27:15;9.30;99.90
70076;DHT22;63241;51.056;3.698;2023-04-06T09:29:43;9.30;99.90
70076;DHT22;63241;51.056;3.698;2023-04-06T09:32:12;9.30;99.90
70076;DHT22;63241;51.056;3.698;2023-04-06T09:34:41;9.40;99.90
70076;DHT22;63241;51.056;3.698;2023-04-06T09:37:16;9.50;99.90
70076;DHT22;63241;51.056;3.698;2023-04-06T09:39:44;9.50;99.90
70076;DHT22;63241;51.056;3.698;2023-04-06T09:42:25;9.40;99.90
70076;DHT22;63241;51.056;3.698;2023-04-06T09:44:54;9.30;99.90
70076;DHT22;63241;51.056;3.698;2023-04-06T09:47:22;9.30;99.90
70076;DHT22;63241;51.056;3.698;2023-04-06T10:26:35;9.70;99.90
70076;DHT22;63241;51.056;3.698;2023-04-06T10:33:12;9.70;99.90
70076;DHT22;63241;51.056;3.698;2023-04-06T10:35:39;9.70;99.90
70076;DHT22;63241;51.056;3.698;2023-04-06T10:38:07;9.60;99.90
70076;DHT22;63241;51.056;3.698;2023-04-06T10:40:39;9.40;99.90
70076;DHT22;63241;51.056;3.698;2023-04-06T10:47:00;9.50;99.90
70076;DHT22;63241;51.056;3.698;2023-04-06T10:49:27;9.50;99.90
70076;DHT22;63241;51.056;3.698;2023-04-06T10:51:56;9.50;99.90
70076;DHT22;63241;51.056;3.698;2023-04-06T10:54:25;9.60;99.90
70076;DHT22;63241;51.056;3.698;2023-04-06T11:00:28;9.90;99.90
70076;DHT22;63241;51.056;3.698;2023-04-06T11:03:01;9.90;99.90
70076;DHT22;63241;51.056;3.698;2023-04-06T11:05:33;10.00;99.90
70076;DHT22;63241;51.056;3.698;2023-04-06T11:08:01;10.00;99.90
70076;DHT22;63241;51.056;3.698;2023-04-06T11:14:09;10.10;99.90
70076;DHT22;63241;51.056;3.698;2023-04-06T11:16:37;10.20;99.90
70076;DHT22;63241;51.056;3.698;2023-04-06T11:19:05;10.10;99.90
70076;DHT22;63241;51.056;3.698;2023-04-06T11:21:44;10.20;99.90
70076;DHT22;63241;51.056;3.698;2023-04-06T11:30:10;10.30;99.90
70076;DHT22;63241;51.056;3.698;2023-04-06T11:32:45;10.40;99.90
70076;DHT22;63241;51.056;3.698;2023-04-06T11:35:20;10.60;99.90
70076;DHT22;63241;51.056;3.698;2023-04-06T11:38:23;10.50;99.90
70076;DHT22;63241;51.056;3.698;2023-04-06T11:41:26;10.50;99.90
70076;DHT22;63241;51.056;3.698;2023-04-06T11:43:56;10.50;99.90
70076;DHT22;63241;51.056;3.698;2023-04-06T11:46:25;10.30;99.90
70076;DHT22;63241;51.056;3.698;2023-04-06T11:48:58;10.20;99.90
70076;DHT22;63241;51.056;3.698;2023-04-06T11:54:58;10.20;99.90
70076;DHT22;63241;51.056;3.698;2023-04-06T11:57:26;10.10;99.90
70076;DHT22;63241;51.056;3.698;2023-04-06T11:59:55;10.00;99.90
70076;DHT22;63241;51.056;3.698;2023-04-06T12:02:23;10.10;99.90
70076;DHT22;63241;51.056;3.698;2023-04-06T12:08:33;10.50;99.90
70076;DHT22;63241;51.056;3.698;2023-04-06T12:11:03;10.60;99.90
70076;DHT22;63241;51.056;3.698;2023-04-06T12:13:30;10.60;99.90
70076;DHT22;63241;51.056;3.698;2023-04-06T12:15:58;10.50;99.90
70076;DHT22;63241;51.056;3.698;2023-04-06T12:22:04;10.70;99.90
70076;DHT22;63241;51.056;3.698;2023-04-06T12:24:31;10.60;99.90
70076;DHT22;63241;51.056;3.698;2023-04-06T12:26:59;10.60;99.90
70076;DHT22;63241;51.056;3.698;2023-04-06T12:29:28;10.60;99.90
70076;DHT22;63241;51.056;3.698;2023-04-06T12:35:44;10.60;99.90
70076;DHT22;63241;51.056;3.698;2023-04-06T12:38:12;10.70;99.90
70076;DHT22;63241;51.056;3.698;2023-04-06T12:40:39;10.80;99.90
70076;DHT22;63241;51.056;3.698;2023-04-06T12:43:07;10.70;99.90
70076;DHT22;63241;51.056;3.698;2023-04-06T12:49:29;10.70;99.90
70076;DHT22;63241;51.056;3.698;2023-04-06T12:51:56;10.70;99.90
70076;DHT22;63241;51.056;3.698;2023-04-06T12:54:24;10.70;99.90
70076;DHT22;63241;51.056;3.698;2023-04-06T12:56:53;10.80;99.90
70076;DHT22;63241;51.056;3.698;2023-04-06T13:03:08;10.80;99.90
70076;DHT22;63241;51.056;3.698;2023-04-06T13:05:36;11.00;99.90
70076;DHT22;63241;51.056;3.698;2023-04-06T13:08:05;11.00;99.90
70076;DHT22;63241;51.056;3.698;2023-04-06T13:10:33;11.10;99.90
70076;DHT22;63241;51.056;3.698;2023-04-06T13:16:45;10.90;99.90
70076;DHT22;63241;51.056;3.698;2023-04-06T13:19:13;10.80;99.90
70076;DHT22;63241;51.056;3.698;2023-04-06T13:21:41;10.70;99.90
70076;DHT22;63241;51.056;3.698;2023-04-06T13:24:09;10.90;99.90
70076;DHT22;63241;51.056;3.698;2023-04-06T13:30:21;11.10;99.90
70076;DHT22;63241;51.056;3.698;2023-04-06T13:32:49;11.00;99.90
70076;DHT22;63241;51.056;3.698;2023-04-06T13:35:17;11.10;99.90
70076;DHT22;63241;51.056;3.698;2023-04-06T13:37:45;11.20;99.90
70076;DHT22;63241;51.056;3.698;2023-04-06T13:44:00;11.30;99.90
70076;DHT22;63241;51.056;3.698;2023-04-06T13:46:28;11.30;99.90
70076;DHT22;63241;51.056;3.698;2023-04-06T13:48:56;11.30;99.90
70076;DHT22;63241;51.056;3.698;2023-04-06T13:51:24;11.40;99.90
70076;DHT22;63241;51.056;3.698;2023-04-06T21:28:50;10.70;99.90
70076;DHT22;63241;51.056;3.698;2023-04-06T21:31:18;10.60;99.90
70076;DHT22;63241;51.056;3.698;2023-04-06T21:33:47;10.50;99.90
70076;DHT22;63241;51.056;3.698;2023-04-06T21:36:14;10.50;99.90
70076;DHT22;63241;51.056;3.698;2023-04-06T21:42:29;10.40;99.90
70076;DHT22;63241;51.056;3.698;2023-04-06T21:44:57;10.40;99.90
70076;DHT22;63241;51.056;3.698;2023-04-06T21:47:24;10.40;99.90
70076;DHT22;63241;51.056;3.698;2023-04-06T21:49:52;10.40;99.90
70076;DHT22;63241;51.056;3.698;2023-04-06T21:56:21;10.50;99.90
70076;DHT22;63241;51.056;3.698;2023-04-06T21:58:44;10.30;99.90
70076;DHT22;63241;51.056;3.698;2023-04-06T22:01:12;10.10;99.90
70076;DHT22;63241;51.056;3.698;2023-04-06T22:03:40;10.10;99.90
70076;DHT22;63241;51.056;3.698;2023-04-06T22:41:28;9.80;99.90
70076;DHT22;63241;51.056;3.698;2023-04-06T22:43:56;9.80;99.90
70076;DHT22;63241;51.056;3.698;2023-04-06T22:46:47;9.80;99.90
70076;DHT22;63241;51.056;3.698;2023-04-06T22:49:37;9.70;99.90
70076;DHT22;63241;51.056;3.698;2023-04-06T22:52:05;9.70;99.90
70076;DHT22;63241;51.056;3.698;2023-04-06T22:54:33;9.70;99.90
70076;DHT22;63241;51.056;3.698;2023-04-06T22:57:01;9.70;99.90
70076;DHT22;63241;51.056;3.698;2023-04-06T23:03:11;9.80;99.90
70076;DHT22;63241;51.056;3.698;2023-04-06T23:05:39;9.80;99.90
70076;DHT22;63241;51.056;3.698;2023-04-06T23:08:07;9.70;99.90
70076;DHT22;63241;51.056;3.698;2023-04-06T23:10:35;9.80;99.90
70076;DHT22;63241;51.056;3.698;2023-04-06T23:16:44;9.90;99.90
70076;DHT22;63241;51.056;3.698;2023-04-06T23:19:11;9.80;99.90
70076;DHT22;63241;51.056;3.698;2023-04-06T23:21:39;9.70;99.90
70076;DHT22;63241;51.056;3.698;2023-04-06T23:24:07;9.60;99.90
70076;DHT22;63241;51.056;3.698;2023-04-06T23:30:23;9.70;99.90
70076;DHT22;63241;51.056;3.698;2023-04-06T23:32:53;9.70;99.90
70076;DHT22;63241;51.056;3.698;2023-04-06T23:35:20;9.70;99.90
70076;DHT22;63241;51.056;3.698;2023-04-06T23:37:48;9.70;99.90
70076;DHT22;63241;51.056;3.698;2023-04-06T23:43:58;9.80;99.90
70076;DHT22;63241;51.056;3.698;2023-04-06T23:46:26;9.70;99.90
70076;DHT22;63241;51.056;3.698;2023-04-06T23:48:53;9.80;99.90
70076;DHT22;63241;51.056;3.698;2023-04-06T23:51:21;9.80;99.90
70076;DHT22;63241;51.056;3.698;2023-04-06T23:57:40;9.80;99.90
